Time;durP1;ratioP1;P1;durP2;ratioP2;P2;SDS_P1;SDS_P2;PMS_P1;PMS_P2;Temp;Humidity;BMP_temperature;BMP_pressure;BME280_temperature;BME280_humidity;BME280_pressure;Samples;Min_cycle;Max_cycle;Signal;HPM_P1;HPM_P2
2023/10/11 00:00:34;;;;;;;46.90;23.77;;;17.20;99.90;;;;;;6270202;22;20765;-88
2023/10/11 00:03:06;;;;;;;48.63;24.23;;;17.10;99.90;;;;;;6246233;22;20362;-88
2023/10/11 00:05:41;;;;;;;45.20;24.00;;;17.40;99.90;;;;;;6243445;22;20394;-87
2023/10/11 00:08:18;;;;;;;48.22;24.35;;;17.20;99.90;;;;;;6245807;22;20375;-88
2023/10/11 00:10:54;;;;;;;45.92;24.13;;;17.20;99.90;;;;;;6244927;22;20827;-88
2023/10/11 00:13:21;;;;;;;43.33;23.90;;;17.20;99.90;;;;;;6244511;22;20393;-88
2023/10/11 00:15:50;;;;;;;46.60;23.95;;;17.20;99.90;;;;;;6248014;22;20367;-88
2023/10/11 00:18:24;;;;;;;47.35;24.45;;;17.20;99.90;;;;;;6272059;22;20759;-89
2023/10/11 00:20:51;;;;;;;46.67;24.20;;;17.90;99.90;;;;;;6274141;22;20728;-89
2023/10/11 00:23:21;;;;;;;47.00;24.55;;;17.20;99.90;;;;;;6246534;22;20362;-88
2023/10/11 00:25:50;;;;;;;50.73;25.00;;;17.10;99.90;;;;;;6268352;22;20439;-88
2023/10/11 00:28:17;;;;;;;47.85;24.13;;;17.30;99.90;;;;;;6269176;22;20685;-88
2023/10/11 00:30:46;;;;;;;46.83;24.08;;;17.20;99.90;;;;;;6267255;22;20368;-89
2023/10/11 00:33:13;;;;;;;43.22;23.38;;;17.20;99.90;;;;;;6269065;22;20361;-88
2023/10/11 00:35:47;;;;;;;45.63;24.25;;;17.00;99.90;;;;;;6266554;22;20837;-88
2023/10/11 00:38:14;;;;;;;45.80;23.27;;;17.10;99.90;;;;;;6268864;22;20376;-88
2023/10/11 00:40:43;;;;;;;42.70;22.92;;;17.10;99.90;;;;;;6241980;22;20392;-91
2023/10/11 00:43:13;;;;;;;42.05;22.45;;;17.10;99.90;;;;;;6268617;22;20361;-89
2023/10/11 00:45:40;;;;;;;45.83;22.85;;;17.40;99.90;;;;;;6268846;22;20376;-89
2023/10/11 00:48:10;;;;;;;48.45;23.10;;;17.60;99.90;;;;;;6241601;22;20872;-89
2023/10/11 00:50:37;;;;;;;44.65;23.30;;;17.40;99.90;;;;;;6242971;22;20368;-89
2023/10/11 00:53:04;;;;;;;44.97;22.38;;;17.40;99.90;;;;;;6241504;22;20395;-89
2023/10/11 00:55:29;;;;;;;40.33;22.30;;;17.10;99.90;;;;;;6268812;22;20422;-88
2023/10/11 00:57:59;;;;;;;42.63;21.70;;;17.10;99.90;;;;;;6267213;22;20360;-89
2023/10/11 01:00:25;;;;;;;43.45;21.63;;;17.00;99.90;;;;;;6268397;22;20384;-88
2023/10/11 01:02:52;;;;;;;42.33;21.58;;;17.50;99.90;;;;;;6268072;22;20360;-88
2023/10/11 01:05:22;;;;;;;40.67;21.20;;;17.40;99.90;;;;;;6267224;22;20379;-89
2023/10/11 01:07:51;;;;;;;40.30;21.27;;;17.10;99.90;;;;;;6243184;22;20384;-90
2023/10/11 01:10:22;;;;;;;45.03;21.73;;;17.00;99.90;;;;;;6266731;22;20939;-89
2023/10/11 01:12:48;;;;;;;44.65;21.13;;;17.00;99.90;;;;;;6269127;22;20360;-91
2023/10/11 01:15:15;;;;;;;41.93;21.07;;;17.20;99.90;;;;;;6268658;22;20422;-90
2023/10/11 01:17:40;;;;;;;43.17;21.90;;;17.00;99.90;;;;;;6269328;22;20364;-91
2023/10/11 01:20:13;;;;;;;38.43;21.43;;;17.30;99.90;;;;;;6243434;22;20373;-90
2023/10/11 01:22:45;;;;;;;42.80;21.52;;;17.00;99.90;;;;;;6267812;22;20447;-90
2023/10/11 01:25:20;;;;;;;43.72;21.27;;;17.20;99.90;;;;;;6243181;22;20380;-91
2023/10/11 01:27:47;;;;;;;40.08;20.95;;;17.30;99.90;;;;;;6242016;22;20410;-90
2023/10/11 01:30:13;;;;;;;39.65;20.73;;;17.50;99.90;;;;;;6269705;22;20392;-90
2023/10/11 01:32:41;;;;;;;44.63;21.80;;;17.00;99.90;;;;;;6242237;22;20866;-90
2023/10/11 01:35:19;;;;;;;43.90;21.90;;;17.00;99.90;;;;;;6269006;22;20376;-90
2023/10/11 01:37:49;;;;;;;41.95;20.63;;;17.00;99.90;;;;;;6265825;22;20811;-88
2023/10/11 01:40:21;;;;;;;46.92;21.50;;;17.10;99.90;;;;;;6241585;22;20748;-88
2023/10/11 01:42:53;;;;;;;43.00;21.00;;;17.00;99.90;;;;;;6242905;22;20479;-90
2023/10/11 01:45:19;;;;;;;44.78;21.52;;;17.00;99.90;;;;;;6266900;22;20372;-90
2023/10/11 01:47:46;;;;;;;46.88;22.83;;;17.00;99.90;;;;;;6268737;22;20852;-89
2023/10/11 01:50:14;;;;;;;38.72;20.95;;;16.70;99.90;;;;;;6267588;22;20398;-89
2023/10/11 01:52:40;;;;;;;44.67;22.08;;;16.90;99.90;;;;;;6267403;22;20757;-89
2023/10/11 01:55:10;;;;;;;44.53;21.80;;;16.90;99.90;;;;;;6268476;22;20682;-89
2023/10/11 01:57:39;;;;;;;44.75;21.77;;;16.90;99.90;;;;;;6267089;22;20447;-89
2023/10/11 02:00:13;;;;;;;41.20;21.08;;;17.30;99.90;;;;;;6268399;22;20371;-89
2023/10/11 02:03:16;;;;;;;41.35;20.83;;;16.90;99.90;;;;;;6266120;22;20430;-87
2023/10/11 02:05:34;;;;;;;41.17;20.60;;;16.90;99.90;;;;;;6260100;22;20865;-88
2023/10/11 02:08:04;;;;;;;40.92;20.27;;;16.80;99.90;;;;;;6242292;22;20421;-88
2023/10/11 02:10:36;;;;;;;39.57;19.63;;;16.80;99.90;;;;;;6266221;22;20369;-89
2023/10/11 02:13:04;;;;;;;37.72;19.80;;;16.80;99.90;;;;;;6268220;22;20372;-89
2023/10/11 02:15:30;;;;;;;43.80;20.15;;;16.50;99.90;;;;;;6266033;22;20365;-88
2023/10/11 02:17:57;;;;;;;42.10;21.07;;;16.90;99.90;;;;;;6267802;22;20372;-92
2023/10/11 02:20:24;;;;;;;38.58;19.42;;;16.70;99.90;;;;;;6266485;22;20368;-89
2023/10/11 02:22:51;;;;;;;42.95;20.05;;;16.90;99.90;;;;;;6267379;22;20380;-89
2023/10/11 02:25:24;;;;;;;37.65;18.52;;;17.50;99.90;;;;;;6241751;22;20455;-89
2023/10/11 02:27:51;;;;;;;41.00;18.25;;;16.70;99.90;;;;;;6265870;22;20904;-89
2023/10/11 02:30:27;;;;;;;42.95;18.52;;;16.60;99.90;;;;;;6242305;22;20392;-89
2023/10/11 02:33:00;;;;;;;42.00;19.33;;;16.90;99.90;;;;;;6266015;22;20403;-87
2023/10/11 02:35:31;;;;;;;36.05;17.80;;;16.70;99.90;;;;;;6268315;22;20422;-88
2023/10/11 02:37:58;;;;;;;36.25;18.10;;;17.10;99.90;;;;;;6241577;22;20382;-89
2023/10/11 02:40:24;;;;;;;38.33;17.35;;;16.80;99.90;;;;;;6240882;22;20368;-89
2023/10/11 02:42:55;;;;;;;35.95;17.50;;;17.00;99.90;;;;;;6242379;22;20772;-89
2023/10/11 02:45:24;;;;;;;36.67;17.25;;;16.70;99.90;;;;;;6265486;22;20409;-89
2023/10/11 02:47:58;;;;;;;34.92;16.75;;;16.70;99.90;;;;;;6267495;22;20364;-89
2023/10/11 02:50:28;;;;;;;36.42;16.95;;;16.70;99.90;;;;;;6240408;22;20868;-90
2023/10/11 02:53:05;;;;;;;34.20;16.60;;;16.70;99.90;;;;;;6267305;22;20413;-89
2023/10/11 02:55:31;;;;;;;38.80;16.80;;;17.00;99.90;;;;;;6267333;22;20847;-88
2023/10/11 02:58:06;;;;;;;37.08;15.80;;;17.00;99.90;;;;;;6265199;22;20360;-89
2023/10/11 03:00:36;;;;;;;35.55;16.33;;;16.40;99.90;;;;;;6241897;22;20737;-89
2023/10/11 03:03:07;;;;;;;35.75;16.50;;;17.20;99.90;;;;;;6266080;22;20382;-90
2023/10/11 03:05:37;;;;;;;32.80;16.52;;;16.70;99.90;;;;;;6267862;22;20371;-89
2023/10/11 03:08:18;;;;;;;32.97;15.63;;;16.90;99.90;;;;;;6266216;22;20902;-89
2023/10/11 03:10:52;;;;;;;34.25;15.65;;;16.70;99.90;;;;;;6265948;22;20376;-88
2023/10/11 03:13:24;;;;;;;33.28;16.48;;;16.80;99.90;;;;;;6267485;22;20390;-90
2023/10/11 03:15:56;;;;;;;34.33;16.52;;;16.70;99.90;;;;;;6240059;22;20356;-89
2023/10/11 03:18:32;;;;;;;30.58;15.40;;;16.80;99.90;;;;;;6242043;22;20747;-89
2023/10/11 03:21:08;;;;;;;30.52;16.27;;;17.00;99.90;;;;;;6266206;22;20395;-88
2023/10/11 03:23:45;;;;;;;37.53;17.42;;;16.70;99.90;;;;;;6240576;22;20410;-89
2023/10/11 03:26:22;;;;;;;38.92;16.33;;;16.60;99.90;;;;;;6241917;22;20674;-89
2023/10/11 03:28:57;;;;;;;34.10;15.60;;;16.70;99.90;;;;;;6265504;22;20445;-89
2023/10/11 03:31:27;;;;;;;33.70;16.17;;;16.60;99.90;;;;;;6267832;22;20448;-90
2023/10/11 03:33:56;;;;;;;32.33;15.43;;;16.90;99.90;;;;;;6240534;22;20364;-90
2023/10/11 03:36:28;;;;;;;31.77;15.70;;;16.60;99.90;;;;;;6241697;22;20381;-89
2023/10/11 03:38:53;;;;;;;32.47;15.32;;;16.50;99.90;;;;;;6268053;22;20883;-89
2023/10/11 03:41:28;;;;;;;31.63;15.23;;;16.60;99.90;;;;;;6266353;22;20443;-90
2023/10/11 03:43:54;;;;;;;34.40;15.63;;;16.60;99.90;;;;;;6267909;22;20361;-90
2023/10/11 03:46:25;;;;;;;33.25;14.82;;;16.60;99.90;;;;;;6240495;22;20430;-89
2023/10/11 03:49:02;;;;;;;34.40;15.63;;;16.70;99.90;;;;;;6269601;22;20394;-90
2023/10/11 03:51:29;;;;;;;34.72;15.40;;;16.60;99.90;;;;;;6269238;22;20699;-90
2023/10/11 03:53:54;;;;;;;34.70;14.97;;;16.60;99.90;;;;;;6268972;22;20423;-90
2023/10/11 03:56:20;;;;;;;29.30;14.17;;;16.60;99.90;;;;;;6243856;22;20376;-89
2023/10/11 03:58:50;;;;;;;29.20;14.65;;;16.60;99.90;;;;;;6241991;22;20686;-90
2023/10/11 04:03:44;;;;;;;33.17;14.40;;;16.60;99.90;;;;;;6267763;22;20426;-90
2023/10/11 04:06:16;;;;;;;35.87;15.37;;;16.60;99.90;;;;;;6269353;22;20368;-90
2023/10/11 04:08:55;;;;;;;36.40;15.13;;;16.60;99.90;;;;;;6268154;22;20388;-89
2023/10/11 04:11:30;;;;;;;31.17;14.00;;;16.60;99.90;;;;;;6268187;22;20417;-89
2023/10/11 04:13:57;;;;;;;35.75;14.85;;;16.70;99.90;;;;;;6269454;22;20360;-89
2023/10/11 04:16:23;;;;;;;31.60;14.07;;;16.50;99.90;;;;;;6268045;22;20514;-90
2023/10/11 04:18:52;;;;;;;31.08;13.98;;;16.50;99.90;;;;;;6243752;22;20447;-90
2023/10/11 04:23:55;;;;;;;32.20;13.88;;;16.50;99.90;;;;;;6269533;22;20454;-90
2023/10/11 04:28:58;;;;;;;30.33;14.00;;;16.50;99.90;;;;;;6268300;22;20392;-91
2023/10/11 04:31:28;;;;;;;32.08;13.55;;;16.60;99.90;;;;;;6244217;22;20459;-91
2023/10/11 04:33:54;;;;;;;34.22;14.15;;;16.60;99.90;;;;;;6267994;22;20406;-90
2023/10/11 04:36:20;;;;;;;28.23;13.38;;;16.60;99.90;;;;;;6270230;22;20366;-90
2023/10/11 04:39:14;;;;;;;26.85;13.50;;;16.60;99.90;;;;;;6242528;22;20459;-91
2023/10/11 04:41:49;;;;;;;28.83;13.27;;;16.60;99.90;;;;;;6268473;22;20733;-91
2023/10/11 04:44:17;;;;;;;31.60;13.25;;;16.60;99.90;;;;;;6243577;22;20371;-89
2023/10/11 04:46:44;;;;;;;29.60;13.27;;;16.60;99.90;;;;;;6266955;22;20776;-88
2023/10/11 04:49:22;;;;;;;30.90;13.80;;;16.70;99.90;;;;;;6268493;22;20392;-88
2023/10/11 04:51:48;;;;;;;29.15;13.70;;;16.90;99.90;;;;;;6267393;22;20955;-89
2023/10/11 04:54:15;;;;;;;30.65;12.73;;;16.60;99.90;;;;;;6268495;22;20399;-89
2023/10/11 04:59:16;;;;;;;30.95;12.95;;;16.70;99.90;;;;;;6267443;22;20372;-89
2023/10/11 05:04:26;;;;;;;28.13;13.00;;;16.70;99.90;;;;;;6265332;22;20419;-89
2023/10/11 05:06:53;;;;;;;31.20;13.70;;;16.70;99.90;;;;;;6268349;22;20726;-90
2023/10/11 05:11:50;;;;;;;26.08;13.93;;;16.70;99.90;;;;;;6267849;22;20376;-89
2023/10/11 05:14:29;;;;;;;31.02;13.90;;;16.60;99.90;;;;;;6268335;22;20365;-89
2023/10/11 05:25:16;;;;;;;28.08;13.82;;;16.60;99.90;;;;;;6266428;22;20376;-89
2023/10/11 05:27:57;;;;;;;29.05;13.80;;;16.60;99.90;;;;;;6268283;22;20381;-89
2023/10/11 05:52:07;;;;;;;29.35;13.68;;;16.80;99.90;;;;;;6266471;22;20372;-90
2023/10/11 05:54:34;;;;;;;30.77;13.63;;;16.80;99.90;;;;;;6268528;22;20368;-89
2023/10/11 05:57:03;;;;;;;31.55;13.73;;;16.80;99.90;;;;;;6267240;22;20368;-89
2023/10/11 05:59:32;;;;;;;25.50;13.40;;;17.00;99.90;;;;;;6267147;22;20383;-90
2023/10/11 06:01:57;;;;;;;30.30;14.43;;;16.90;99.90;;;;;;6242803;22;20367;-89
2023/10/11 06:04:23;;;;;;;28.77;13.75;;;16.90;99.90;;;;;;6240843;22;20455;-90
2023/10/11 06:06:57;;;;;;;27.63;13.53;;;16.90;99.90;;;;;;6267759;22;20407;-88
2023/10/11 06:09:30;;;;;;;29.02;13.60;;;16.90;99.90;;;;;;6265703;22;20393;-89
2023/10/11 06:11:57;;;;;;;26.42;13.07;;;17.30;99.90;;;;;;6267344;22;20372;-88
2023/10/11 06:14:23;;;;;;;30.52;13.55;;;17.00;99.90;;;;;;6241273;22;20372;-88
2023/10/11 06:16:57;;;;;;;32.08;14.40;;;17.00;99.90;;;;;;6266928;22;20855;-88
2023/10/11 06:19:26;;;;;;;26.92;13.30;;;17.00;99.90;;;;;;6242245;22;20371;-89
2023/10/11 06:21:59;;;;;;;32.50;13.33;;;17.10;99.90;;;;;;6240500;22;20371;-89
2023/10/11 06:24:26;;;;;;;29.48;13.43;;;17.10;99.90;;;;;;6271038;22;20367;-88
2023/10/11 06:26:52;;;;;;;27.35;13.50;;;17.10;99.90;;;;;;6271045;22;20383;-88
2023/10/11 06:29:29;;;;;;;27.50;13.88;;;17.60;99.90;;;;;;6271675;22;20391;-91
2023/10/11 06:31:55;;;;;;;27.38;13.43;;;17.10;99.90;;;;;;6272102;22;20363;-89
2023/10/11 06:34:32;;;;;;;27.23;13.17;;;17.20;99.90;;;;;;6244899;22;20365;-88
2023/10/11 06:36:59;;;;;;;26.17;12.82;;;17.10;99.90;;;;;;6272277;22;20410;-89
2023/10/11 06:44:48;;;;;;;24.27;12.52;;;17.40;99.90;;;;;;6272906;22;20685;-90
2023/10/11 06:47:19;;;;;;;23.77;12.50;;;17.20;99.90;;;;;;6247215;22;20408;-90
2023/10/11 06:49:55;;;;;;;29.73;13.07;;;17.50;99.90;;;;;;6273177;22;21107;-90
2023/10/11 06:52:33;;;;;;;26.42;12.73;;;17.30;99.90;;;;;;6271434;22;20463;-91
2023/10/11 06:55:15;;;;;;;24.55;12.15;;;17.30;99.90;;;;;;6247278;22;20416;-91
2023/10/11 06:57:51;;;;;;;25.10;12.25;;;17.30;99.90;;;;;;6246632;22;20362;-89
2023/10/11 07:00:21;;;;;;;26.00;12.88;;;17.30;99.90;;;;;;6271338;22;20695;-90
2023/10/11 07:03:09;;;;;;;26.08;11.80;;;17.60;99.90;;;;;;6272943;22;20371;-89
2023/10/11 07:05:46;;;;;;;30.55;13.25;;;17.40;99.90;;;;;;6270627;22;20441;-89
2023/10/11 07:08:20;;;;;;;25.88;12.95;;;17.50;99.90;;;;;;6247025;22;20373;-89
2023/10/11 07:11:00;;;;;;;28.13;12.45;;;18.10;99.90;;;;;;6272707;22;20373;-89
2023/10/11 07:13:30;;;;;;;26.33;12.03;;;17.60;99.90;;;;;;6245904;22;20366;-89
2023/10/11 07:16:00;;;;;;;23.65;12.88;;;17.70;99.90;;;;;;6273243;22;20373;-90
2023/10/11 07:18:25;;;;;;;21.40;12.25;;;18.20;99.90;;;;;;6271013;22;20363;-88
2023/10/11 07:20:58;;;;;;;24.23;12.35;;;17.60;99.90;;;;;;6272824;22;20932;-88
2023/10/11 07:23:35;;;;;;;30.10;13.07;;;17.70;99.90;;;;;;6247605;22;20362;-88
2023/10/11 07:28:50;;;;;;;26.02;12.98;;;17.80;99.90;;;;;;6275059;22;20394;-90
2023/10/11 07:31:19;;;;;;;30.52;13.48;;;17.90;99.90;;;;;;6273160;22;20370;-89
2023/10/11 07:33:55;;;;;;;28.83;13.45;;;18.20;99.90;;;;;;6275112;22;20373;-89
2023/10/11 07:36:22;;;;;;;24.90;12.45;;;17.70;99.90;;;;;;6248647;22;20864;-89
2023/10/11 07:38:54;;;;;;;25.13;12.52;;;18.30;99.90;;;;;;6274374;22;20446;-89
2023/10/11 07:41:29;;;;;;;21.70;11.80;;;17.90;99.90;;;;;;6274992;22;20461;-91
2023/10/11 07:44:01;;;;;;;23.27;12.70;;;18.00;99.90;;;;;;6247803;22;20449;-90
2023/10/11 07:46:28;;;;;;;21.75;12.45;;;18.10;99.90;;;;;;6275571;22;20358;-90
2023/10/11 07:49:01;;;;;;;22.55;11.63;;;18.10;99.90;;;;;;6247613;22;20465;-91
2023/10/11 07:51:34;;;;;;;23.65;11.82;;;18.40;99.90;;;;;;6249225;22;20363;-90
2023/10/11 07:54:06;;;;;;;24.92;12.27;;;18.10;99.90;;;;;;6249336;22;20366;-90
2023/10/11 07:56:35;;;;;;;21.83;11.93;;;18.30;99.90;;;;;;6273384;22;20370;-89
2023/10/11 07:59:08;;;;;;;21.27;12.18;;;18.10;99.90;;;;;;6249293;22;20493;-89
2023/10/11 08:01:43;;;;;;;23.23;11.87;;;18.10;99.90;;;;;;6247752;22;20706;-91
2023/10/11 08:04:16;;;;;;;27.27;12.18;;;18.00;99.90;;;;;;6248927;22;20377;-89
2023/10/11 08:06:41;;;;;;;21.02;12.18;;;18.10;99.90;;;;;;6273434;22;20371;-88
2023/10/11 08:09:09;;;;;;;20.33;11.73;;;18.00;99.90;;;;;;6248990;22;20916;-89
2023/10/11 08:11:45;;;;;;;22.95;12.23;;;18.10;99.90;;;;;;6248460;22;20692;-89
2023/10/11 08:14:21;;;;;;;23.48;12.85;;;18.40;99.90;;;;;;6272538;22;20446;-90
2023/10/11 08:16:50;;;;;;;22.90;12.18;;;18.50;99.90;;;;;;6274394;22;20377;-90
2023/10/11 08:19:16;;;;;;;25.13;12.52;;;18.00;99.90;;;;;;6272992;22;20748;-89
2023/10/11 08:21:50;;;;;;;22.20;13.23;;;18.10;99.90;;;;;;6248816;22;20456;-90
2023/10/11 08:24:16;;;;;;;22.80;11.50;;;18.30;99.90;;;;;;6273627;22;20378;-89
2023/10/11 08:26:45;;;;;;;22.73;11.73;;;18.00;99.90;;;;;;6247901;22;20388;-91
2023/10/11 08:29:27;;;;;;;16.45;10.18;;;18.00;99.90;;;;;;6275556;22;20785;-90
2023/10/11 08:32:06;;;;;;;23.15;11.07;;;17.90;99.90;;;;;;6273644;22;20432;-90
2023/10/11 08:34:32;;;;;;;18.33;10.80;;;17.90;99.90;;;;;;6274474;22;20862;-89
2023/10/11 08:36:58;;;;;;;14.07;8.93;;;17.90;99.90;;;;;;6248007;22;20705;-89
2023/10/11 08:39:35;;;;;;;14.25;9.20;;;17.90;99.90;;;;;;6273866;22;20439;-89
2023/10/11 08:42:14;;;;;;;13.68;8.30;;;17.80;99.90;;;;;;6274214;22;20424;-89
2023/10/11 08:44:44;;;;;;;14.57;9.27;;;17.90;99.90;;;;;;6272463;22;20393;-89
2023/10/11 08:47:13;;;;;;;14.85;8.98;;;17.80;99.90;;;;;;6248650;22;20553;-90
2023/10/11 08:49:48;;;;;;;11.82;8.00;;;17.70;99.90;;;;;;6272861;22;20390;-89
2023/10/11 08:52:18;;;;;;;13.87;9.13;;;17.70;99.90;;;;;;6272354;22;20389;-90
2023/10/11 08:54:44;;;;;;;14.60;9.10;;;17.70;99.90;;;;;;6273669;22;20363;-89
2023/10/11 08:57:13;;;;;;;11.15;8.38;;;17.70;99.90;;;;;;6272524;22;20405;-89
2023/10/11 08:59:57;;;;;;;10.85;7.60;;;17.80;99.90;;;;;;6248329;22;20442;-87
2023/10/11 09:02:27;;;;;;;13.82;8.50;;;17.80;99.90;;;;;;6245851;22;20462;-92
2023/10/11 09:05:02;;;;;;;12.93;7.95;;;17.90;99.90;;;;;;6248327;22;20707;-91
2023/10/11 09:07:45;;;;;;;13.68;8.10;;;18.20;99.90;;;;;;6247604;22;20366;-89
2023/10/11 09:10:24;;;;;;;10.85;7.53;;;18.10;99.90;;;;;;6245933;22;20924;-90
2023/10/11 09:12:56;;;;;;;13.90;8.15;;;18.10;99.90;;;;;;6273875;22;20386;-89
2023/10/11 09:15:23;;;;;;;12.50;7.88;;;18.10;99.90;;;;;;6246277;22;20359;-89
2023/10/11 09:17:50;;;;;;;12.02;7.80;;;18.50;99.90;;;;;;6273269;22;20358;-90
2023/10/11 09:20:16;;;;;;;12.23;8.20;;;18.30;99.90;;;;;;6272147;22;20370;-88
2023/10/11 09:22:47;;;;;;;12.73;7.60;;;18.60;99.90;;;;;;6247623;22;20413;-91
2023/10/11 09:25:21;;;;;;;12.88;7.82;;;18.30;99.90;;;;;;6273422;22;20544;-90
2023/10/11 09:27:51;;;;;;;14.75;7.70;;;18.30;99.90;;;;;;6272519;22;20363;-89
2023/10/11 09:30:21;;;;;;;14.07;8.02;;;18.30;99.90;;;;;;6248143;22;20485;-88
2023/10/11 09:32:51;;;;;;;13.05;8.00;;;18.20;99.90;;;;;;6244009;22;20424;-90
2023/10/11 09:35:26;;;;;;;14.57;7.88;;;18.30;99.90;;;;;;6273590;22;20371;-91
2023/10/11 09:37:54;;;;;;;10.77;7.55;;;18.30;99.90;;;;;;6247697;22;20370;-90
2023/10/11 09:40:27;;;;;;;11.60;7.85;;;18.30;99.90;;;;;;6246319;22;20402;-89
2023/10/11 09:42:57;;;;;;;11.25;7.00;;;18.60;99.90;;;;;;6248353;22;20367;-87
2023/10/11 09:45:29;;;;;;;11.27;7.35;;;18.30;99.90;;;;;;6245988;22;20764;-90
2023/10/11 09:47:56;;;;;;;12.43;7.18;;;18.40;99.90;;;;;;6248208;22;20457;-91
2023/10/11 09:50:27;;;;;;;12.13;7.40;;;18.50;99.90;;;;;;6247409;22;20393;-91
2023/10/11 09:52:53;;;;;;;11.25;6.78;;;18.50;99.90;;;;;;6248114;22;20375;-90
2023/10/11 09:55:31;;;;;;;11.80;6.78;;;18.50;99.90;;;;;;6248429;22;20362;-89
2023/10/11 09:58:35;;;;;;;11.73;6.45;;;18.60;99.90;;;;;;6272443;22;20445;-92
2023/10/11 10:01:15;;;;;;;11.82;6.47;;;18.70;99.90;;;;;;6249050;22;20380;-90
2023/10/11 10:03:52;;;;;;;12.75;7.18;;;18.80;99.90;;;;;;6273089;22;20415;-91
2023/10/11 10:06:18;;;;;;;15.80;7.97;;;18.60;99.90;;;;;;6273222;22;20843;-91
2023/10/11 10:09:04;;;;;;;15.40;8.30;;;18.40;99.90;;;;;;6247694;22;20390;-91
2023/10/11 10:12:05;;;;;;;17.17;8.02;;;18.30;99.90;;;;;;6245648;22;20847;-91
2023/10/11 10:14:35;;;;;;;12.07;6.53;;;18.20;99.90;;;;;;6273251;22;20371;-89
2023/10/11 10:17:13;;;;;;;9.82;6.70;;;18.20;99.90;;;;;;6246636;22;20859;-90
2023/10/11 10:19:48;;;;;;;13.60;7.20;;;18.10;99.90;;;;;;6244903;22;20404;-89
2023/10/11 10:22:23;;;;;;;12.48;6.90;;;18.10;99.90;;;;;;6248210;22;20785;-90
2023/10/11 10:24:54;;;;;;;10.77;6.50;;;18.20;99.90;;;;;;6245533;22;20379;-93
2023/10/11 10:27:34;;;;;;;14.05;7.03;;;18.70;99.90;;;;;;6248341;22;20363;-91
2023/10/11 10:30:04;;;;;;;14.80;6.65;;;18.40;99.90;;;;;;6247899;22;20473;-91
2023/10/11 10:32:30;;;;;;;12.48;6.65;;;18.50;99.90;;;;;;6246688;22;20354;-91
2023/10/11 10:35:18;;;;;;;10.50;5.47;;;18.90;99.90;;;;;;6273838;22;20370;-90
2023/10/11 10:37:57;;;;;;;11.33;5.63;;;19.20;99.90;;;;;;6246218;22;20367;-90
2023/10/11 10:40:24;;;;;;;11.00;5.32;;;19.80;99.90;;;;;;6246642;22;20432;-90
2023/10/11 10:43:19;;;;;;;8.90;4.68;;;19.70;99.90;;;;;;6272381;22;20366;-90
2023/10/11 10:45:52;;;;;;;9.57;4.53;;;20.00;99.90;;;;;;6272695;22;20355;-89
2023/10/11 10:48:23;;;;;;;8.48;4.00;;;20.10;99.90;;;;;;6273970;22;20455;-90
2023/10/11 10:51:04;;;;;;;8.18;3.92;;;20.30;99.90;;;;;;6272150;22;20363;-88
2023/10/11 10:53:53;;;;;;;8.82;4.25;;;20.10;99.90;;;;;;6248081;22;20374;-90
2023/10/11 10:56:25;;;;;;;7.93;4.32;;;20.10;99.90;;;;;;6247796;22;20568;-92
2023/10/11 10:59:14;;;;;;;8.43;3.47;;;19.90;99.90;;;;;;6272290;22;20711;-90
2023/10/11 11:01:44;;;;;;;7.40;3.47;;;19.80;99.90;;;;;;6249088;22;20442;-91
2023/10/11 11:04:11;;;;;;;8.45;4.00;;;20.00;99.90;;;;;;6246577;22;20743;-90
2023/10/11 11:06:38;;;;;;;9.05;3.60;;;20.10;99.90;;;;;;6247678;22;20365;-88
2023/10/11 11:09:05;;;;;;;10.77;3.67;;;20.10;99.90;;;;;;6246884;22;20440;-89
2023/10/11 11:11:35;;;;;;;8.57;3.60;;;20.10;99.90;;;;;;6271658;22;20363;-90
2023/10/11 11:14:11;;;;;;;8.02;3.42;;;20.10;99.90;;;;;;6273045;22;20462;-90
2023/10/11 11:16:41;;;;;;;8.30;3.90;;;19.60;99.90;;;;;;6271352;22;20391;-90
2023/10/11 11:19:17;;;;;;;8.80;3.08;;;19.70;99.90;;;;;;6247371;22;20905;-89
2023/10/11 11:21:46;;;;;;;8.35;3.40;;;19.50;99.90;;;;;;6271859;22;20468;-91
2023/10/11 11:24:27;;;;;;;6.43;3.25;;;19.90;99.90;;;;;;6272320;22;20466;-90
2023/10/11 11:26:56;;;;;;;8.10;3.30;;;19.50;99.90;;;;;;6273085;22;21133;-91
2023/10/11 11:29:32;;;;;;;9.27;3.27;;;19.50;99.90;;;;;;6238809;22;20470;-89
2023/10/11 11:32:14;;;;;;;8.32;3.40;;;19.70;99.90;;;;;;6273337;22;20454;-88
2023/10/11 11:35:02;;;;;;;8.13;3.10;;;20.10;99.90;;;;;;6272725;22;20424;-90
2023/10/11 11:37:30;;;;;;;6.23;3.23;;;19.30;99.90;;;;;;6247369;22;20398;-90
2023/10/11 11:42:48;;;;;;;9.23;3.33;;;19.30;99.90;;;;;;6272163;22;20373;-93
2023/10/11 11:45:18;;;;;;;7.47;3.08;;;19.30;99.90;;;;;;6247545;22;20390;-92
2023/10/11 11:47:56;;;;;;;10.27;3.40;;;19.30;99.90;;;;;;6246846;22;20446;-89
2023/10/11 11:50:30;;;;;;;9.38;3.40;;;19.30;99.90;;;;;;6246988;22;20418;-92
2023/10/11 11:52:57;;;;;;;9.77;3.72;;;19.20;99.90;;;;;;6273957;22;20370;-91
2023/10/11 11:55:23;;;;;;;9.13;3.58;;;19.60;99.90;;;;;;6271545;22;20369;-90
2023/10/11 11:57:50;;;;;;;9.65;3.63;;;19.40;99.90;;;;;;6248065;22;21098;-90
2023/10/11 12:02:55;;;;;;;8.88;3.53;;;19.50;99.90;;;;;;6272601;22;20363;-91
2023/10/11 12:05:21;;;;;;;8.95;3.20;;;19.60;99.90;;;;;;6247492;22;20680;-90
2023/10/11 12:07:51;;;;;;;10.77;3.78;;;19.70;99.90;;;;;;6271701;22;20481;-90
2023/10/11 12:10:25;;;;;;;9.23;3.17;;;19.70;99.90;;;;;;6249125;22;20851;-91
2023/10/11 12:13:05;;;;;;;9.32;3.25;;;19.70;99.90;;;;;;6272508;22;20831;-89
2023/10/11 12:15:34;;;;;;;8.57;2.72;;;19.60;99.90;;;;;;6274262;22;20367;-90
2023/10/11 12:17:59;;;;;;;7.45;2.83;;;19.90;99.90;;;;;;6273664;22;20362;-88
2023/10/11 12:20:33;;;;;;;9.38;3.25;;;19.50;99.90;;;;;;6273525;22;20851;-90
2023/10/11 12:23:08;;;;;;;7.65;2.88;;;19.80;99.90;;;;;;6274977;22;20806;-92
2023/10/11 12:25:38;;;;;;;6.75;2.70;;;19.80;99.90;;;;;;6246556;22;20373;-88
2023/10/11 12:28:05;;;;;;;9.63;2.90;;;19.50;99.90;;;;;;6274945;22;20355;-92
2023/10/11 12:30:34;;;;;;;9.05;2.90;;;19.50;99.90;;;;;;6246955;22;20387;-90
2023/10/11 12:33:06;;;;;;;9.93;3.28;;;19.40;99.90;;;;;;6249477;22;20366;-90
2023/10/11 12:35:36;;;;;;;8.57;3.00;;;19.40;99.90;;;;;;6248273;22;20799;-89
2023/10/11 12:38:03;;;;;;;9.50;3.03;;;19.80;99.90;;;;;;6272996;22;20369;-89
2023/10/11 12:40:28;;;;;;;9.10;3.25;;;19.10;99.90;;;;;;6274418;22;20362;-90
2023/10/11 12:42:58;;;;;;;8.65;3.13;;;19.50;99.90;;;;;;6247553;22;20714;-91
2023/10/11 12:45:23;;;;;;;10.60;3.17;;;19.30;99.90;;;;;;6273821;22;20720;-89
2023/10/11 12:47:49;;;;;;;9.53;3.50;;;19.40;99.90;;;;;;6272979;22;20712;-88
2023/10/11 12:50:17;;;;;;;7.25;2.85;;;19.90;99.90;;;;;;6249300;22;20394;-88
2023/10/11 12:52:46;;;;;;;7.93;2.95;;;19.70;99.90;;;;;;6274190;22;20363;-90
2023/10/11 13:18:09;;;;;;;9.13;4.05;;;18.80;99.90;;;;;;6126300;22;2637455;-96
2023/10/11 13:20:45;;;;;;;9.98;3.50;;;19.60;99.90;;;;;;6165336;23;20407;-92
2023/10/11 13:23:11;;;;;;;10.45;3.88;;;19.80;99.90;;;;;;6146965;23;20717;-94
2023/10/11 13:25:37;;;;;;;8.13;3.35;;;19.70;99.90;;;;;;6138068;23;21003;-93
2023/10/11 13:28:03;;;;;;;8.90;3.77;;;19.70;99.90;;;;;;6137436;23;20376;-94
2023/10/11 13:30:36;;;;;;;10.85;3.90;;;19.60;99.90;;;;;;6150319;23;20412;-96
2023/10/11 13:33:30;;;;;;;9.57;3.47;;;19.80;99.90;;;;;;6190911;23;20383;-96
2023/10/11 13:36:00;;;;;;;9.77;3.97;;;19.40;99.90;;;;;;6140598;23;20377;-94
2023/10/11 13:38:30;;;;;;;9.63;3.78;;;19.90;99.90;;;;;;6137347;23;20463;-92
2023/10/11 13:40:58;;;;;;;12.98;4.10;;;19.90;99.90;;;;;;6165172;23;20431;-96
2023/10/11 13:43:24;;;;;;;10.57;4.15;;;19.80;99.90;;;;;;6139514;23;20387;-94
2023/10/11 13:46:01;;;;;;;11.40;4.13;;;20.10;99.90;;;;;;6139946;23;20432;-95
2023/10/11 13:48:33;;;;;;;12.20;4.30;;;19.90;99.90;;;;;;6139754;23;20373;-95
2023/10/11 13:51:16;;;;;;;11.07;4.15;;;20.70;99.90;;;;;;6161688;23;20388;-92
2023/10/11 13:53:42;;;;;;;10.82;3.90;;;20.10;99.90;;;;;;6143862;23;20868;-94
2023/10/11 13:56:20;;;;;;;12.90;3.88;;;20.40;99.90;;;;;;6142148;23;20369;-94
2023/10/11 13:58:53;;;;;;;10.82;4.25;;;20.10;99.90;;;;;;6163343;23;20706;-93
2023/10/11 14:01:58;;;;;;;10.77;3.65;;;20.10;99.90;;;;;;6136959;23;20369;-94
2023/10/11 14:09:46;;;;;;;10.07;3.33;;;19.80;99.90;;;;;;6159871;23;20861;-91
2023/10/11 14:12:17;;;;;;;11.95;3.72;;;19.90;99.90;;;;;;6139631;23;20407;-92
2023/10/11 14:14:43;;;;;;;11.68;3.45;;;19.90;99.90;;;;;;6137248;23;20473;-94
2023/10/11 14:17:24;;;;;;;11.73;3.70;;;19.90;99.90;;;;;;6134995;23;20389;-94
2023/10/11 14:19:51;;;;;;;9.52;3.10;;;19.90;99.90;;;;;;6132401;23;20374;-93
2023/10/11 14:22:18;;;;;;;10.43;3.30;;;19.90;99.90;;;;;;6130480;23;20362;-93